CYTZ/YTZ METAR and TAF weather

Enter ICAO airport designator
Station Type Date Time Source
CYTZ METAR 2017/09/24 13:00 UTC NOAA

CYTZ 241300Z AUTO 25004KT 9SM CLR 23/20 A3015 RMK SLP212 DENSITY ALT 1000FT


Station Type Date Time Source
CYTZ Decoded METAR 2017/09/24 13:00 UTC NOAA

Toronto Island Airport Automated Reporting Station, Canada (CYTZ) 43-38N 079-24W
Sep 24, 2017 - 09:00 AM EDT / 2017.09.24 1300 UTC
Wind: from the WSW (250 degrees) at 5 MPH (4 KT):0
Visibility: 9 mile(s):0
Sky conditions: clear
Temperature: 73 F (23 C)
Dew Point: 68 F (20 C)
Relative Humidity: 83%
Pressure (altimeter): 30.15 in. Hg (1020 hPa)
ob: CYTZ 241300Z AUTO 25004KT 9SM CLR 23/20 A3015 RMK SLP212 DENSITY ALT 1000FT
cycle: 13

Station Type Date Time Source
CYTZ TAF 2017/09/24 14:42 UTC NOAA

TAF CYTZ 241338Z 2414/2514 24006KT P6SM SKC
RMK FCST BASED ON AUTO OBS. NXT FCST BY 242000Z


Example: see airport list